sensor_id;sensor_type;location;lat;lon;timestamp;pressure;altitude;pressure_sealevel;temperature;humidity
15308;BME280;7755;52.208;6.964;2023-04-26T00:02:20;101466.53;;;4.54;97.92
15308;BME280;7755;52.208;6.964;2023-04-26T00:06:23;101472.66;;;4.48;97.85
15308;BME280;7755;52.208;6.964;2023-04-26T00:10:28;101475.25;;;4.41;98.49
15308;BME280;7755;52.208;6.964;2023-04-26T00:14:31;101474.75;;;4.37;99.40
15308;BME280;7755;52.208;6.964;2023-04-26T00:18:36;101482.19;;;4.35;99.43
15308;BME280;7755;52.208;6.964;2023-04-26T00:22:40;101474.13;;;4.35;99.43
15308;BME280;7755;52.208;6.964;2023-04-26T00:26:44;101476.50;;;4.30;100.00
15308;BME280;7755;52.208;6.964;2023-04-26T00:30:53;101468.81;;;4.27;99.77
15308;BME280;7755;52.208;6.964;2023-04-26T00:35:02;101470.16;;;4.23;99.92
15308;BME280;7755;52.208;6.964;2023-04-26T00:39:05;101469.53;;;4.21;100.00
15308;BME280;7755;52.208;6.964;2023-04-26T00:43:09;101464.84;;;4.15;100.00
15308;BME280;7755;52.208;6.964;2023-04-26T00:47:13;101462.81;;;4.17;100.00
15308;BME280;7755;52.208;6.964;2023-04-26T00:51:17;101464.47;;;4.18;100.00
15308;BME280;7755;52.208;6.964;2023-04-26T00:55:22;101459.66;;;4.14;100.00
15308;BME280;7755;52.208;6.964;2023-04-26T00:59:27;101452.56;;;4.13;100.00
15308;BME280;7755;52.208;6.964;2023-04-26T01:03:32;101455.44;;;4.11;100.00
15308;BME280;7755;52.208;6.964;2023-04-26T01:07:37;101459.16;;;4.10;100.00
15308;BME280;7755;52.208;6.964;2023-04-26T01:11:41;101455.63;;;4.09;100.00
15308;BME280;7755;52.208;6.964;2023-04-26T01:15:46;101462.56;;;4.04;100.00
15308;BME280;7755;52.208;6.964;2023-04-26T01:19:49;101454.19;;;3.99;100.00
15308;BME280;7755;52.208;6.964;2023-04-26T01:23:54;101452.53;;;3.98;100.00
15308;BME280;7755;52.208;6.964;2023-04-26T01:27:57;101465.31;;;3.96;100.00
15308;BME280;7755;52.208;6.964;2023-04-26T01:32:00;101458.97;;;3.89;100.00
15308;BME280;7755;52.208;6.964;2023-04-26T01:36:07;101462.19;;;3.84;100.00
15308;BME280;7755;52.208;6.964;2023-04-26T01:40:12;101456.81;;;3.84;100.00
15308;BME280;7755;52.208;6.964;2023-04-26T01:44:16;101464.22;;;3.82;100.00
15308;BME280;7755;52.208;6.964;2023-04-26T01:48:19;101458.34;;;3.78;100.00
15308;BME280;7755;52.208;6.964;2023-04-26T01:52:22;101459.38;;;3.77;100.00
15308;BME280;7755;52.208;6.964;2023-04-26T01:56:27;101460.41;;;3.76;100.00
15308;BME280;7755;52.208;6.964;2023-04-26T02:00:55;101460.09;;;3.71;100.00
15308;BME280;7755;52.208;6.964;2023-04-26T02:05:22;101467.69;;;3.68;100.00
15308;BME280;7755;52.208;6.964;2023-04-26T02:09:25;101462.00;;;3.63;100.00
15308;BME280;7755;52.208;6.964;2023-04-26T02:13:29;101468.56;;;3.60;100.00
15308;BME280;7755;52.208;6.964;2023-04-26T02:17:34;101466.59;;;3.54;100.00
15308;BME280;7755;52.208;6.964;2023-04-26T02:21:52;101474.16;;;3.50;100.00
15308;BME280;7755;52.208;6.964;2023-04-26T02:25:56;101473.72;;;3.39;100.00
15308;BME280;7755;52.208;6.964;2023-04-26T02:30:01;101471.72;;;3.33;100.00
15308;BME280;7755;52.208;6.964;2023-04-26T02:34:04;101469.19;;;3.31;100.00
15308;BME280;7755;52.208;6.964;2023-04-26T02:38:07;101479.47;;;3.27;100.00
15308;BME280;7755;52.208;6.964;2023-04-26T02:42:11;101477.59;;;3.28;100.00
15308;BME280;7755;52.208;6.964;2023-04-26T02:46:16;101477.09;;;3.24;100.00
15308;BME280;7755;52.208;6.964;2023-04-26T02:50:20;101473.25;;;3.27;100.00
15308;BME280;7755;52.208;6.964;2023-04-26T02:54:24;101475.94;;;3.27;100.00
15308;BME280;7755;52.208;6.964;2023-04-26T02:58:27;101473.56;;;3.24;100.00
15308;BME280;7755;52.208;6.964;2023-04-26T03:02:31;101478.44;;;3.28;100.00
15308;BME280;7755;52.208;6.964;2023-04-26T03:06:34;101470.38;;;3.28;100.00
15308;BME280;7755;52.208;6.964;2023-04-26T03:10:37;101478.28;;;3.22;100.00
15308;BME280;7755;52.208;6.964;2023-04-26T03:14:40;101464.34;;;3.18;100.00
15308;BME280;7755;52.208;6.964;2023-04-26T03:18:45;101463.69;;;3.16;100.00
15308;BME280;7755;52.208;6.964;2023-04-26T03:22:48;101468.28;;;3.08;100.00
15308;BME280;7755;52.208;6.964;2023-04-26T03:26:52;101465.06;;;3.04;100.00
15308;BME280;7755;52.208;6.964;2023-04-26T03:30:56;101458.41;;;3.00;100.00
15308;BME280;7755;52.208;6.964;2023-04-26T03:35:03;101454.38;;;2.96;100.00
15308;BME280;7755;52.208;6.964;2023-04-26T03:39:06;101452.19;;;2.99;100.00
15308;BME280;7755;52.208;6.964;2023-04-26T03:43:10;101452.88;;;2.93;100.00
15308;BME280;7755;52.208;6.964;2023-04-26T03:47:13;101452.53;;;2.88;100.00
15308;BME280;7755;52.208;6.964;2023-04-26T03:51:19;101452.38;;;2.90;100.00
15308;BME280;7755;52.208;6.964;2023-04-26T03:55:22;101451.03;;;2.94;100.00
15308;BME280;7755;52.208;6.964;2023-04-26T03:59:25;101447.13;;;2.96;100.00
15308;BME280;7755;52.208;6.964;2023-04-26T04:03:28;101447.09;;;3.05;100.00
15308;BME280;7755;52.208;6.964;2023-04-26T04:07:33;101456.19;;;3.12;100.00
15308;BME280;7755;52.208;6.964;2023-04-26T04:11:37;101455.13;;;3.21;100.00
15308;BME280;7755;52.208;6.964;2023-04-26T04:15:40;101451.44;;;3.22;100.00
15308;BME280;7755;52.208;6.964;2023-04-26T04:19:44;101447.06;;;3.21;100.00
15308;BME280;7755;52.208;6.964;2023-04-26T04:23:48;101461.34;;;3.21;100.00
15308;BME280;7755;52.208;6.964;2023-04-26T04:27:52;101466.72;;;3.21;100.00
15308;BME280;7755;52.208;6.964;2023-04-26T04:31:55;101460.84;;;3.18;100.00
15308;BME280;7755;52.208;6.964;2023-04-26T04:35:58;101466.22;;;3.18;100.00
15308;BME280;7755;52.208;6.964;2023-04-26T04:40:04;101461.84;;;3.17;100.00
15308;BME280;7755;52.208;6.964;2023-04-26T04:44:09;101460.69;;;3.11;100.00
15308;BME280;7755;52.208;6.964;2023-04-26T04:48:12;101462.72;;;3.09;100.00
15308;BME280;7755;52.208;6.964;2023-04-26T04:52:15;101470.31;;;3.06;100.00
15308;BME280;7755;52.208;6.964;2023-04-26T04:56:22;101469.63;;;3.04;100.00
15308;BME280;7755;52.208;6.964;2023-04-26T05:00:27;101479.69;;;3.10;100.00
15308;BME280;7755;52.208;6.964;2023-04-26T05:04:53;101478.16;;;3.15;100.00
15308;BME280;7755;52.208;6.964;2023-04-26T05:08:57;101475.09;;;3.18;100.00
15308;BME280;7755;52.208;6.964;2023-04-26T05:13:02;101484.84;;;3.27;100.00
15308;BME280;7755;52.208;6.964;2023-04-26T05:17:06;101484.09;;;3.42;100.00
15308;BME280;7755;52.208;6.964;2023-04-26T05:21:10;101482.34;;;3.57;100.00
15308;BME280;7755;52.208;6.964;2023-04-26T05:25:17;101490.03;;;3.68;100.00
15308;BME280;7755;52.208;6.964;2023-04-26T05:29:29;101487.09;;;3.78;100.00
15308;BME280;7755;52.208;6.964;2023-04-26T05:33:35;101491.06;;;3.90;100.00
15308;BME280;7755;52.208;6.964;2023-04-26T05:38:05;101499.91;;;4.07;100.00
15308;BME280;7755;52.208;6.964;2023-04-26T05:42:07;101500.31;;;4.19;100.00
15308;BME280;7755;52.208;6.964;2023-04-26T05:46:12;101500.28;;;4.27;100.00
15308;BME280;7755;52.208;6.964;2023-04-26T05:50:16;101509.81;;;4.29;100.00
15308;BME280;7755;52.208;6.964;2023-04-26T05:54:20;101513.16;;;4.31;100.00
15308;BME280;7755;52.208;6.964;2023-04-26T05:58:23;101514.84;;;4.32;100.00
15308;BME280;7755;52.208;6.964;2023-04-26T06:02:28;101507.72;;;4.39;100.00
15308;BME280;7755;52.208;6.964;2023-04-26T06:06:32;101504.97;;;4.48;100.00
15308;BME280;7755;52.208;6.964;2023-04-26T06:10:35;101510.09;;;4.57;100.00
15308;BME280;7755;52.208;6.964;2023-04-26T06:14:40;101517.56;;;4.70;100.00
15308;BME280;7755;52.208;6.964;2023-04-26T06:18:54;101515.09;;;4.83;100.00
15308;BME280;7755;52.208;6.964;2023-04-26T06:23:15;101519.75;;;4.89;100.00
15308;BME280;7755;52.208;6.964;2023-04-26T06:27:52;101517.34;;;4.95;100.00
15308;BME280;7755;52.208;6.964;2023-04-26T06:32:25;101515.41;;;5.03;100.00
15308;BME280;7755;52.208;6.964;2023-04-26T06:36:57;101523.50;;;5.18;100.00
15308;BME280;7755;52.208;6.964;2023-04-26T06:41:17;101530.31;;;5.43;100.00
15308;BME280;7755;52.208;6.964;2023-04-26T06:45:34;101529.44;;;5.58;100.00
15308;BME280;7755;52.208;6.964;2023-04-26T06:49:37;101528.88;;;5.77;100.00
15308;BME280;7755;52.208;6.964;2023-04-26T06:53:58;101531.38;;;5.93;100.00
15308;BME280;7755;52.208;6.964;2023-04-26T06:58:17;101528.03;;;5.91;100.00
15308;BME280;7755;52.208;6.964;2023-04-26T07:02:36;101529.72;;;6.14;100.00
15308;BME280;7755;52.208;6.964;2023-04-26T07:06:52;101534.72;;;6.32;100.00
15308;BME280;7755;52.208;6.964;2023-04-26T07:11:15;101534.59;;;6.40;100.00
15308;BME280;7755;52.208;6.964;2023-04-26T07:15:44;101528.97;;;6.41;100.00
15308;BME280;7755;52.208;6.964;2023-04-26T07:20:17;101525.44;;;6.41;100.00
15308;BME280;7755;52.208;6.964;2023-04-26T07:24:47;101524.69;;;6.47;100.00
15308;BME280;7755;52.208;6.964;2023-04-26T07:29:10;101523.50;;;6.56;100.00
15308;BME280;7755;52.208;6.964;2023-04-26T07:33:37;101524.22;;;6.65;100.00
15308;BME280;7755;52.208;6.964;2023-04-26T07:38:07;101535.31;;;6.76;100.00
15308;BME280;7755;52.208;6.964;2023-04-26T07:42:36;101531.00;;;6.82;100.00
15308;BME280;7755;52.208;6.964;2023-04-26T07:46:56;101538.84;;;6.98;100.00
15308;BME280;7755;52.208;6.964;2023-04-26T07:51:13;101541.41;;;7.06;100.00
15308;BME280;7755;52.208;6.964;2023-04-26T07:55:40;101541.25;;;7.49;100.00
15308;BME280;7755;52.208;6.964;2023-04-26T08:00:03;101546.09;;;8.08;96.61
15308;BME280;7755;52.208;6.964;2023-04-26T08:04:46;101543.13;;;8.71;91.78
15308;BME280;7755;52.208;6.964;2023-04-26T08:09:19;101532.25;;;9.30;88.78
15308;BME280;7755;52.208;6.964;2023-04-26T08:13:46;101534.31;;;9.42;83.24
15308;BME280;7755;52.208;6.964;2023-04-26T08:18:15;101540.75;;;9.47;82.32
15308;BME280;7755;52.208;6.964;2023-04-26T08:22:34;101535.03;;;9.75;80.23
15308;BME280;7755;52.208;6.964;2023-04-26T08:26:38;101540.75;;;10.05;77.24
15308;BME280;7755;52.208;6.964;2023-04-26T08:30:44;101534.72;;;10.42;74.64
15308;BME280;7755;52.208;6.964;2023-04-26T08:34:49;101539.38;;;10.66;70.18
15308;BME280;7755;52.208;6.964;2023-04-26T08:38:53;101531.69;;;10.56;70.95
15308;BME280;7755;52.208;6.964;2023-04-26T08:43:07;101534.81;;;10.60;71.26
15308;BME280;7755;52.208;6.964;2023-04-26T08:47:15;101542.28;;;10.39;70.86
15308;BME280;7755;52.208;6.964;2023-04-26T08:51:26;101549.22;;;10.29;68.60
15308;BME280;7755;52.208;6.964;2023-04-26T08:55:35;101548.06;;;10.05;67.91
15308;BME280;7755;52.208;6.964;2023-04-26T08:59:56;101545.00;;;9.88;66.86
15308;BME280;7755;52.208;6.964;2023-04-26T09:04:11;101553.19;;;9.81;67.25
15308;BME280;7755;52.208;6.964;2023-04-26T09:08:28;101549.59;;;9.88;66.89
15308;BME280;7755;52.208;6.964;2023-04-26T09:24:03;101547.03;;;9.35;70.60
15308;BME280;7755;52.208;6.964;2023-04-26T09:28:19;101559.63;;;9.16;72.54
15308;BME280;7755;52.208;6.964;2023-04-26T09:32:23;101562.94;;;9.18;73.68
15308;BME280;7755;52.208;6.964;2023-04-26T09:36:27;101553.97;;;9.24;69.46
15308;BME280;7755;52.208;6.964;2023-04-26T09:40:32;101548.75;;;9.29;68.37
15308;BME280;7755;52.208;6.964;2023-04-26T09:44:37;101551.63;;;9.41;66.91
15308;BME280;7755;52.208;6.964;2023-04-26T09:48:39;101549.72;;;9.48;66.21
15308;BME280;7755;52.208;6.964;2023-04-26T09:53:08;101539.91;;;9.53;66.73
15308;BME280;7755;52.208;6.964;2023-04-26T09:57:14;101541.34;;;9.63;66.43
15308;BME280;7755;52.208;6.964;2023-04-26T10:01:39;101543.03;;;9.64;66.49
15308;BME280;7755;52.208;6.964;2023-04-26T10:05:48;101540.53;;;9.55;66.47
15308;BME280;7755;52.208;6.964;2023-04-26T10:09:53;101543.47;;;9.41;66.29
15308;BME280;7755;52.208;6.964;2023-04-26T10:13:58;101533.28;;;9.29;66.59
15308;BME280;7755;52.208;6.964;2023-04-26T10:18:02;101530.75;;;9.35;67.60
15308;BME280;7755;52.208;6.964;2023-04-26T10:22:08;101530.59;;;9.29;66.56
15308;BME280;7755;52.208;6.964;2023-04-26T10:30:57;101542.69;;;9.20;66.04
15308;BME280;7755;52.208;6.964;2023-04-26T10:35:10;101538.75;;;9.16;64.61
15308;BME280;7755;52.208;6.964;2023-04-26T10:39:18;101532.50;;;9.02;64.05
15308;BME280;7755;52.208;6.964;2023-04-26T10:43:28;101539.56;;;9.10;64.08
15308;BME280;7755;52.208;6.964;2023-04-26T10:48:15;101538.09;;;9.21;64.29
15308;BME280;7755;52.208;6.964;2023-04-26T10:53:03;101528.47;;;9.38;64.15
15308;BME280;7755;52.208;6.964;2023-04-26T10:57:07;101526.56;;;9.45;64.04
15308;BME280;7755;52.208;6.964;2023-04-26T11:01:15;101526.16;;;9.48;61.94
15308;BME280;7755;52.208;6.964;2023-04-26T11:05:49;101531.44;;;9.88;62.42
15308;BME280;7755;52.208;6.964;2023-04-26T11:09:53;101525.81;;;10.28;59.79
15308;BME280;7755;52.208;6.964;2023-04-26T11:14:07;101525.19;;;10.32;57.54
15308;BME280;7755;52.208;6.964;2023-04-26T11:18:39;101505.66;;;10.42;57.51
15308;BME280;7755;52.208;6.964;2023-04-26T11:23:12;101513.09;;;10.53;56.58
15308;BME280;7755;52.208;6.964;2023-04-26T11:27:41;101514.94;;;10.59;57.06
15308;BME280;7755;52.208;6.964;2023-04-26T11:32:15;101518.28;;;10.61;56.85
15308;BME280;7755;52.208;6.964;2023-04-26T11:36:50;101516.56;;;10.67;57.33
15308;BME280;7755;52.208;6.964;2023-04-26T11:41:23;101524.16;;;10.83;56.65
15308;BME280;7755;52.208;6.964;2023-04-26T11:45:57;101518.47;;;10.91;56.78
15308;BME280;7755;52.208;6.964;2023-04-26T11:50:00;101516.22;;;11.07;56.24
15308;BME280;7755;52.208;6.964;2023-04-26T11:54:04;101522.03;;;11.10;54.35
15308;BME280;7755;52.208;6.964;2023-04-26T11:58:12;101513.97;;;11.22;54.59
15308;BME280;7755;52.208;6.964;2023-04-26T12:02:15;101516.09;;;11.20;54.73
15308;BME280;7755;52.208;6.964;2023-04-26T12:06:25;101507.09;;;11.38;53.43
15308;BME280;7755;52.208;6.964;2023-04-26T12:10:33;101520.47;;;11.21;53.06
15308;BME280;7755;52.208;6.964;2023-04-26T12:14:39;101517.91;;;11.26;52.72
15308;BME280;7755;52.208;6.964;2023-04-26T12:18:48;101517.81;;;11.14;52.18
15308;BME280;7755;52.208;6.964;2023-04-26T12:23:01;101513.97;;;11.22;52.49
15308;BME280;7755;52.208;6.964;2023-04-26T12:27:05;101505.44;;;11.37;53.11
15308;BME280;7755;52.208;6.964;2023-04-26T12:31:10;101511.13;;;11.35;52.58
15308;BME280;7755;52.208;6.964;2023-04-26T12:35:20;101516.63;;;11.29;52.81
15308;BME280;7755;52.208;6.964;2023-04-26T12:39:23;101525.78;;;11.34;53.26
15308;BME280;7755;52.208;6.964;2023-04-26T12:43:26;101515.59;;;11.48;53.14
15308;BME280;7755;52.208;6.964;2023-04-26T12:47:30;101519.06;;;11.55;52.69
15308;BME280;7755;52.208;6.964;2023-04-26T12:51:33;101514.13;;;11.64;53.01
15308;BME280;7755;52.208;6.964;2023-04-26T12:55:36;101515.75;;;11.53;51.51
15308;BME280;7755;52.208;6.964;2023-04-26T12:59:39;101514.13;;;11.64;52.28
15308;BME280;7755;52.208;6.964;2023-04-26T13:03:44;101515.28;;;11.74;51.56
15308;BME280;7755;52.208;6.964;2023-04-26T13:07:47;101508.53;;;11.77;50.67
15308;BME280;7755;52.208;6.964;2023-04-26T13:11:50;101507.94;;;11.75;51.93
15308;BME280;7755;52.208;6.964;2023-04-26T13:15:53;101505.53;;;11.67;50.55
15308;BME280;7755;52.208;6.964;2023-04-26T13:19:57;101509.75;;;11.44;51.29
15308;BME280;7755;52.208;6.964;2023-04-26T13:24:00;101517.38;;;11.36;51.09
15308;BME280;7755;52.208;6.964;2023-04-26T13:28:04;101516.03;;;11.27;52.07
15308;BME280;7755;52.208;6.964;2023-04-26T13:32:08;101512.97;;;11.16;52.27
15308;BME280;7755;52.208;6.964;2023-04-26T13:36:13;101528.09;;;11.12;52.09
15308;BME280;7755;52.208;6.964;2023-04-26T13:40:16;101523.56;;;11.06;52.87
15308;BME280;7755;52.208;6.964;2023-04-26T13:44:22;101529.66;;;11.02;52.58
15308;BME280;7755;52.208;6.964;2023-04-26T13:48:25;101523.50;;;10.88;53.09
15308;BME280;7755;52.208;6.964;2023-04-26T13:52:29;101521.72;;;10.75;53.63
15308;BME280;7755;52.208;6.964;2023-04-26T13:56:33;101532.28;;;10.65;54.53
15308;BME280;7755;52.208;6.964;2023-04-26T14:00:36;101530.63;;;10.64;54.54
15308;BME280;7755;52.208;6.964;2023-04-26T14:04:39;101532.94;;;10.60;54.23
15308;BME280;7755;52.208;6.964;2023-04-26T14:08:44;101538.88;;;10.51;54.77
15308;BME280;7755;52.208;6.964;2023-04-26T14:12:47;101522.97;;;10.48;54.98
15308;BME280;7755;52.208;6.964;2023-04-26T14:16:53;101533.63;;;10.49;55.26
15308;BME280;7755;52.208;6.964;2023-04-26T14:21:01;101531.34;;;10.46;56.22
15308;BME280;7755;52.208;6.964;2023-04-26T14:25:06;101526.09;;;10.51;56.26
15308;BME280;7755;52.208;6.964;2023-04-26T14:29:10;101530.81;;;10.62;56.26
15308;BME280;7755;52.208;6.964;2023-04-26T14:33:13;101532.09;;;10.60;55.12
15308;BME280;7755;52.208;6.964;2023-04-26T14:37:16;101528.88;;;10.70;55.22
15308;BME280;7755;52.208;6.964;2023-04-26T14:41:24;101528.44;;;10.73;55.30
15308;BME280;7755;52.208;6.964;2023-04-26T14:45:27;101518.78;;;10.77;55.01
15308;BME280;7755;52.208;6.964;2023-04-26T14:49:45;101521.41;;;10.65;54.14
15308;BME280;7755;52.208;6.964;2023-04-26T14:53:48;101521.69;;;10.57;55.86
15308;BME280;7755;52.208;6.964;2023-04-26T14:57:52;101507.94;;;10.70;56.75
15308;BME280;7755;52.208;6.964;2023-04-26T15:01:55;101509.34;;;10.79;56.14
15308;BME280;7755;52.208;6.964;2023-04-26T15:05:58;101512.19;;;10.91;56.38
15308;BME280;7755;52.208;6.964;2023-04-26T15:10:02;101507.75;;;11.15;55.47
15308;BME280;7755;52.208;6.964;2023-04-26T15:14:07;101500.34;;;11.22;53.53
15308;BME280;7755;52.208;6.964;2023-04-26T15:18:10;101496.44;;;11.36;53.36
15308;BME280;7755;52.208;6.964;2023-04-26T15:22:13;101502.72;;;11.37;52.44
15308;BME280;7755;52.208;6.964;2023-04-26T15:26:16;101498.25;;;11.24;53.01
15308;BME280;7755;52.208;6.964;2023-04-26T15:30:22;101492.53;;;11.32;53.45
15308;BME280;7755;52.208;6.964;2023-04-26T15:34:29;101495.25;;;11.32;52.25
15308;BME280;7755;52.208;6.964;2023-04-26T15:38:42;101502.72;;;11.18;51.72
15308;BME280;7755;52.208;6.964;2023-04-26T15:42:46;101502.63;;;11.07;51.78
15308;BME280;7755;52.208;6.964;2023-04-26T15:46:51;101501.91;;;10.93;51.87
15308;BME280;7755;52.208;6.964;2023-04-26T15:50:53;101503.63;;;10.87;52.11
15308;BME280;7755;52.208;6.964;2023-04-26T15:54:57;101499.97;;;10.75;52.93
15308;BME280;7755;52.208;6.964;2023-04-26T15:59:00;101497.47;;;10.74;53.39
15308;BME280;7755;52.208;6.964;2023-04-26T16:03:05;101502.91;;;10.74;54.00
15308;BME280;7755;52.208;6.964;2023-04-26T16:07:08;101504.84;;;10.66;54.33
15308;BME280;7755;52.208;6.964;2023-04-26T16:11:11;101502.13;;;10.66;54.18
15308;BME280;7755;52.208;6.964;2023-04-26T16:15:20;101509.88;;;10.63;54.94
15308;BME280;7755;52.208;6.964;2023-04-26T16:19:26;101508.03;;;10.63;54.83
15308;BME280;7755;52.208;6.964;2023-04-26T16:23:30;101507.94;;;10.70;54.82
15308;BME280;7755;52.208;6.964;2023-04-26T16:27:39;101512.00;;;10.61;54.44
15308;BME280;7755;52.208;6.964;2023-04-26T16:32:00;101520.25;;;10.48;54.40
15308;BME280;7755;52.208;6.964;2023-04-26T16:36:06;101518.72;;;10.27;54.86
15308;BME280;7755;52.208;6.964;2023-04-26T16:40:26;101518.94;;;10.19;55.32
15308;BME280;7755;52.208;6.964;2023-04-26T16:44:29;101519.97;;;10.31;55.58
15308;BME280;7755;52.208;6.964;2023-04-26T16:48:34;101517.09;;;10.12;55.78
15308;BME280;7755;52.208;6.964;2023-04-26T16:52:38;101507.81;;;9.89;56.70
15308;BME280;7755;52.208;6.964;2023-04-26T16:56:41;101515.41;;;9.73;57.70
15308;BME280;7755;52.208;6.964;2023-04-26T17:00:44;101521.06;;;9.72;57.86
15308;BME280;7755;52.208;6.964;2023-04-26T17:04:47;101528.19;;;9.66;58.67
15308;BME280;7755;52.208;6.964;2023-04-26T17:08:52;101531.72;;;9.67;58.60
15308;BME280;7755;52.208;6.964;2023-04-26T17:12:55;101532.56;;;9.67;59.33
15308;BME280;7755;52.208;6.964;2023-04-26T17:16:57;101532.56;;;9.67;59.96
15308;BME280;7755;52.208;6.964;2023-04-26T17:21:00;101530.53;;;9.56;60.55
15308;BME280;7755;52.208;6.964;2023-04-26T17:25:06;101527.81;;;9.56;61.01
15308;BME280;7755;52.208;6.964;2023-04-26T17:29:09;101531.94;;;9.65;60.94
15308;BME280;7755;52.208;6.964;2023-04-26T17:33:12;101531.38;;;9.50;60.42
15308;BME280;7755;52.208;6.964;2023-04-26T17:37:15;101527.63;;;9.38;60.75
15308;BME280;7755;52.208;6.964;2023-04-26T17:41:20;101532.63;;;9.34;61.57
15308;BME280;7755;52.208;6.964;2023-04-26T17:45:23;101537.88;;;9.29;62.05
15308;BME280;7755;52.208;6.964;2023-04-26T17:49:26;101534.16;;;9.17;62.21
15308;BME280;7755;52.208;6.964;2023-04-26T17:53:29;101526.00;;;9.23;62.58
15308;BME280;7755;52.208;6.964;2023-04-26T17:57:33;101531.00;;;9.26;62.40
15308;BME280;7755;52.208;6.964;2023-04-26T18:01:36;101525.56;;;9.20;62.85
15308;BME280;7755;52.208;6.964;2023-04-26T18:05:38;101531.44;;;9.23;63.21
15308;BME280;7755;52.208;6.964;2023-04-26T18:09:41;101533.06;;;9.31;63.22
15308;BME280;7755;52.208;6.964;2023-04-26T18:13:46;101534.75;;;9.32;63.00
15308;BME280;7755;52.208;6.964;2023-04-26T18:17:49;101536.00;;;9.29;63.23
15308;BME280;7755;52.208;6.964;2023-04-26T18:21:52;101545.81;;;9.24;63.03
15308;BME280;7755;52.208;6.964;2023-04-26T18:25:54;101540.38;;;9.30;63.36
15308;BME280;7755;52.208;6.964;2023-04-26T18:29:59;101542.06;;;9.25;62.77
15308;BME280;7755;52.208;6.964;2023-04-26T18:34:02;101554.38;;;9.08;63.15
15308;BME280;7755;52.208;6.964;2023-04-26T18:38:04;101560.25;;;9.05;62.80
15308;BME280;7755;52.208;6.964;2023-04-26T18:42:07;101556.91;;;9.02;63.51
15308;BME280;7755;52.208;6.964;2023-04-26T18:46:11;101563.38;;;9.01;63.70
15308;BME280;7755;52.208;6.964;2023-04-26T18:50:20;101560.84;;;8.93;63.53
15308;BME280;7755;52.208;6.964;2023-04-26T18:54:32;101556.47;;;8.92;63.93
15308;BME280;7755;52.208;6.964;2023-04-26T18:58:35;101567.75;;;8.96;64.71
15308;BME280;7755;52.208;6.964;2023-04-26T19:02:39;101567.31;;;8.99;65.06
15308;BME280;7755;52.208;6.964;2023-04-26T19:06:42;101568.16;;;8.99;64.91
15308;BME280;7755;52.208;6.964;2023-04-26T19:10:44;101571.09;;;8.91;65.68
15308;BME280;7755;52.208;6.964;2023-04-26T19:14:47;101576.94;;;8.88;65.57
15308;BME280;7755;52.208;6.964;2023-04-26T19:18:51;101578.81;;;8.81;66.71
15308;BME280;7755;52.208;6.964;2023-04-26T19:22:54;101588.63;;;8.82;66.72
15308;BME280;7755;52.208;6.964;2023-04-26T19:26:57;101583.19;;;8.89;66.90
15308;BME280;7755;52.208;6.964;2023-04-26T19:30:59;101590.91;;;8.92;67.10
15308;BME280;7755;52.208;6.964;2023-04-26T19:35:04;101589.44;;;8.89;68.13
15308;BME280;7755;52.208;6.964;2023-04-26T19:39:07;101584.25;;;8.81;68.25
15308;BME280;7755;52.208;6.964;2023-04-26T19:43:10;101589.66;;;8.88;68.64
15308;BME280;7755;52.208;6.964;2023-04-26T19:47:13;101594.22;;;8.94;68.93
15308;BME280;7755;52.208;6.964;2023-04-26T19:51:17;101594.22;;;8.94;69.06
15308;BME280;7755;52.208;6.964;2023-04-26T19:55:20;101589.00;;;8.86;68.92
15308;BME280;7755;52.208;6.964;2023-04-26T19:59:22;101594.88;;;8.89;68.82
15308;BME280;7755;52.208;6.964;2023-04-26T20:03:25;101604.25;;;8.93;69.32
15308;BME280;7755;52.208;6.964;2023-04-26T20:07:29;101596.31;;;8.92;70.04
15308;BME280;7755;52.208;6.964;2023-04-26T20:11:32;101593.63;;;8.92;70.84
15308;BME280;7755;52.208;6.964;2023-04-26T20:15:35;101605.72;;;8.89;71.62
15308;BME280;7755;52.208;6.964;2023-04-26T20:19:38;101611.75;;;8.85;73.23
15308;BME280;7755;52.208;6.964;2023-04-26T20:23:42;101609.88;;;8.79;73.52
15308;BME280;7755;52.208;6.964;2023-04-26T20:27:45;101612.78;;;8.70;74.15
15308;BME280;7755;52.208;6.964;2023-04-26T20:31:48;101612.97;;;8.56;74.67
15308;BME280;7755;52.208;6.964;2023-04-26T20:35:51;101612.94;;;8.42;75.76
15308;BME280;7755;52.208;6.964;2023-04-26T20:39:55;101622.84;;;8.29;77.61
15308;BME280;7755;52.208;6.964;2023-04-26T20:43:58;101616.53;;;8.08;78.32
15308;BME280;7755;52.208;6.964;2023-04-26T20:48:02;101628.31;;;7.94;77.64
15308;BME280;7755;52.208;6.964;2023-04-26T20:52:04;101619.72;;;7.84;78.47
15308;BME280;7755;52.208;6.964;2023-04-26T20:56:11;101626.56;;;7.73;78.27
15308;BME280;7755;52.208;6.964;2023-04-26T21:00:14;101618.59;;;7.72;78.74
15308;BME280;7755;52.208;6.964;2023-04-26T21:04:16;101623.75;;;7.60;79.18
15308;BME280;7755;52.208;6.964;2023-04-26T21:08:20;101628.66;;;7.50;80.26
15308;BME280;7755;52.208;6.964;2023-04-26T21:12:24;101621.16;;;7.45;80.61
15308;BME280;7755;52.208;6.964;2023-04-26T21:16:27;101624.03;;;7.44;80.88
15308;BME280;7755;52.208;6.964;2023-04-26T21:20:30;101630.66;;;7.34;81.01
15308;BME280;7755;52.208;6.964;2023-04-26T21:24:32;101624.16;;;7.29;81.56
15308;BME280;7755;52.208;6.964;2023-04-26T21:28:36;101629.66;;;7.14;81.46
15308;BME280;7755;52.208;6.964;2023-04-26T21:32:39;101630.84;;;7.05;81.68
15308;BME280;7755;52.208;6.964;2023-04-26T21:36:42;101633.06;;;7.01;82.17
15308;BME280;7755;52.208;6.964;2023-04-26T21:40:45;101632.44;;;6.99;81.95
15308;BME280;7755;52.208;6.964;2023-04-26T21:44:49;101637.84;;;6.99;82.63
15308;BME280;7755;52.208;6.964;2023-04-26T21:48:52;101644.72;;;7.02;82.33
15308;BME280;7755;52.208;6.964;2023-04-26T21:52:55;101642.00;;;7.02;81.79
15308;BME280;7755;52.208;6.964;2023-04-26T21:56:57;101644.47;;;6.97;81.96
15308;BME280;7755;52.208;6.964;2023-04-26T22:01:08;101645.63;;;6.88;82.42
15308;BME280;7755;52.208;6.964;2023-04-26T22:05:11;101644.09;;;6.78;83.17
15308;BME280;7755;52.208;6.964;2023-04-26T22:09:14;101644.03;;;6.72;83.82
15308;BME280;7755;52.208;6.964;2023-04-26T22:13:17;101648.97;;;6.68;84.06
15308;BME280;7755;52.208;6.964;2023-04-26T22:17:21;101648.53;;;6.65;84.02